Time;durP1;ratioP1;P1;durP2;ratioP2;P2;SDS_P1;SDS_P2;PMS_P1;PMS_P2;Temp;Humidity;BMP_temperature;BMP_pressure;BME280_temperature;BME280_humidity;BME280_pressure;Samples;Min_cycle;Max_cycle;Signal;HPM_P1;HPM_P2
2023/11/17 00:02:26;;;;;;;;;;;;;;;3.76;90.84;99445.71;133228;1302;23563;-72
2023/11/17 00:05:58;;;;;;;;;;;;;;;3.75;90.55;99443.48;133224;1313;22462;-71
2023/11/17 00:09:04;;;;;;;;;;;;;;;3.77;90.69;99446.65;133590;1306;22483;-71
2023/11/17 00:12:37;;;;;;;;;;;;;;;3.80;90.60;99446.86;133487;1299;22457;-70
2023/11/17 00:15:43;;;;;;;;;;;;;;;3.85;90.76;99451.02;133390;1310;23243;-72
2023/11/17 00:18:58;;;;;;;;;;;;;;;3.88;90.95;99447.23;133512;1310;23529;-72
2023/11/17 00:22:11;;;;;;;;;;;;;;;3.89;90.76;99446.56;133451;1304;22549;-72
2023/11/17 00:25:27;;;;;;;;;;;;;;;3.92;90.94;99445.06;133543;1310;22474;-72
2023/11/17 00:28:50;;;;;;;;;;;;;;;;;;;;;
2023/11/17 00:32:01;;;;;;;;;;;;;;;3.92;91.27;99445.65;133530;1307;23231;-72
2023/11/17 00:35:26;;;;;;;;;;;;;;;;;;;;;
2023/11/17 00:38:38;;;;;;;;;;;;;;;3.93;91.41;99446.58;133493;1310;22631;-71
2023/11/17 00:41:47;;;;;;;;;;;;;;;3.93;91.38;99450.08;133431;1303;23623;-71
2023/11/17 00:45:07;;;;;;;;;;;;;;;3.95;91.42;99451.11;133493;1303;23364;-71
2023/11/17 00:48:28;;;;;;;;;;;;;;;3.95;91.53;99451.77;133434;1303;22503;-72
2023/11/17 00:52:03;;;;;;;;;;;;;;;3.97;91.44;99456.38;133463;1304;22467;-71
2023/11/17 00:55:07;;;;;;;;;;;;;;;3.99;91.46;99451.98;133486;1310;22481;-72
2023/11/17 00:58:21;;;;;;;;;;;;;;;;;;;;;
2023/11/17 01:01:27;;;;;;;;;;;;;;;4.02;91.42;99450.09;133490;1304;22479;-72
2023/11/17 01:04:54;;;;;;;;;;;;;;;4.04;91.67;99452.42;133509;1304;23287;-72
2023/11/17 01:07:56;;;;;;;;;;;;;;;4.06;91.68;99452.40;133408;1310;22577;-72
2023/11/17 01:11:02;;;;;;;;;;;;;;;4.07;91.70;99454.40;133461;1304;23689;-72
2023/11/17 01:14:13;;;;;;;;;;;;;;;4.09;91.99;99455.14;133512;1310;23323;-72
2023/11/17 01:17:25;;;;;;;;;;;;;;;4.07;91.53;99454.66;133517;1303;22443;-72
2023/11/17 01:20:36;;;;;;;;;;;;;;;4.08;91.79;99450.52;133531;1302;22462;-72
2023/11/17 01:24:09;;;;;;;;;;;;;;;4.09;91.84;99454.98;133517;1310;22498;-72
2023/11/17 01:27:26;;;;;;;;;;;;;;;4.10;91.93;99453.23;133509;1304;22478;-72
2023/11/17 01:31:00;;;;;;;;;;;;;;;4.12;91.78;99447.52;133486;1309;22484;-72
2023/11/17 01:34:31;;;;;;;;;;;;;;;;;;;;;
2023/11/17 01:37:55;;;;;;;;;;;;;;;4.10;91.68;99450.30;133464;1310;22605;-71
2023/11/17 01:41:09;;;;;;;;;;;;;;;4.06;91.74;99451.50;133453;1303;22461;-72
2023/11/17 01:44:23;;;;;;;;;;;;;;;4.06;91.82;99452.29;133495;1303;22480;-71
2023/11/17 01:47:58;;;;;;;;;;;;;;;4.03;91.91;99448.61;133527;1303;22512;-72
2023/11/17 01:51:33;;;;;;;;;;;;;;;4.02;92.00;99450.09;133509;1310;23832;-71
2023/11/17 01:55:00;;;;;;;;;;;;;;;4.01;91.96;99444.60;133490;1304;22477;-72
2023/11/17 01:58:17;;;;;;;;;;;;;;;3.96;91.97;99441.91;133472;1304;22574;-72
2023/11/17 02:01:36;;;;;;;;;;;;;;;3.94;91.79;99440.94;133423;1304;22539;-72
2023/11/17 02:05:32;;;;;;;;;;;;;;;3.93;92.19;99443.45;133437;1304;23362;-71
2023/11/17 02:08:46;;;;;;;;;;;;;;;3.94;91.98;99441.98;133446;1303;22640;-71
2023/11/17 02:12:16;;;;;;;;;;;;;;;3.93;92.06;99441.85;133399;1304;22606;-72
2023/11/17 02:15:39;;;;;;;;;;;;;;;;;;;;;
2023/11/17 02:19:26;;;;;;;;;;;;;;;;;;;;;
2023/11/17 02:23:23;;;;;;;;;;;;;;;4.00;92.55;99441.41;133453;1304;22496;-71
2023/11/17 02:26:22;;;;;;;;;;;;;;;4.00;92.57;99444.54;133343;1306;22488;-72
2023/11/17 02:29:44;;;;;;;;;;;;;;;4.01;92.69;99446.86;133422;1310;22471;-71
2023/11/17 02:33:16;;;;;;;;;;;;;;;3.99;92.53;99446.70;133415;1310;22474;-72
2023/11/17 02:36:50;;;;;;;;;;;;;;;;;;;;;
2023/11/17 02:40:28;;;;;;;;;;;;;;;;;;;;;
2023/11/17 02:43:58;;;;;;;;;;;;;;;4.01;92.57;99452.65;133492;1310;22483;-72
2023/11/17 02:47:08;;;;;;;;;;;;;;;4.02;92.62;99455.34;133456;1310;22481;-71
2023/11/17 02:51:03;;;;;;;;;;;;;;;;;;;;;
2023/11/17 02:54:25;;;;;;;;;;;;;;;4.03;92.67;99461.95;133409;1299;22558;-72
2023/11/17 02:57:57;;;;;;;;;;;;;;;4.00;92.89;99466.91;133474;1303;22472;-72
2023/11/17 03:01:24;;;;;;;;;;;;;;;4.00;92.82;99466.55;133484;1310;22488;-71
2023/11/17 03:04:41;;;;;;;;;;;;;;;3.99;92.90;99471.57;133474;1310;23233;-71
2023/11/17 03:08:36;;;;;;;;;;;;;;;3.96;92.90;99478.83;133489;1310;22512;-71
2023/11/17 03:12:25;;;;;;;;;;;;;;;3.93;92.80;99482.28;133376;1304;23661;-72
2023/11/17 03:15:08;;;;;;;;;;;;;;;3.93;93.22;99480.89;133416;1310;22525;-71
2023/11/17 03:18:38;;;;;;;;;;;;;;;3.96;93.58;99487.11;133495;1303;23186;-72
2023/11/17 03:21:55;;;;;;;;;;;;;;;;;;;;;
2023/11/17 03:25:26;;;;;;;;;;;;;;;4.00;93.45;99488.42;133504;1304;22577;-72
2023/11/17 03:32:42;;;;;;;;;;;;;;;4.07;93.42;99489.45;133446;1304;22492;-72
2023/11/17 03:36:31;;;;;;;;;;;;;;;4.09;93.66;99491.34;133450;1303;22532;-72
2023/11/17 03:40:17;;;;;;;;;;;;;;;4.11;93.57;99497.12;133275;1310;22508;-71
2023/11/17 03:43:21;;;;;;;;;;;;;;;4.13;93.91;99495.90;133460;1310;22497;-72
2023/11/17 03:46:51;;;;;;;;;;;;;;;;;;;;;
2023/11/17 03:50:24;;;;;;;;;;;;;;;;;;;;;
2023/11/17 03:53:37;;;;;;;;;;;;;;;4.18;93.99;99505.41;133440;1310;23374;-72
2023/11/17 03:57:14;;;;;;;;;;;;;;;4.19;93.94;99509.46;133409;1304;22483;-71
2023/11/17 04:00:33;;;;;;;;;;;;;;;;;;;;;
2023/11/17 04:03:52;;;;;;;;;;;;;;;4.25;94.73;99510.70;133450;1308;22480;-72
2023/11/17 04:07:11;;;;;;;;;;;;;;;4.27;94.93;99515.20;133376;1308;22482;-72
2023/11/17 04:10:56;;;;;;;;;;;;;;;4.31;95.32;99507.38;133409;1310;22479;-73
2023/11/17 04:13:57;;;;;;;;;;;;;;;4.34;95.34;99506.34;133436;1304;22506;-72
2023/11/17 04:17:06;;;;;;;;;;;;;;;4.38;95.80;99500.91;133452;1310;22470;-73
2023/11/17 04:20:18;;;;;;;;;;;;;;;4.41;95.91;99506.08;133491;1310;22554;-72
2023/11/17 04:24:25;;;;;;;;;;;;;;;4.43;96.41;99508.48;133438;1310;22702;-72
2023/11/17 04:27:22;;;;;;;;;;;;;;;;;;;;;
2023/11/17 04:30:40;;;;;;;;;;;;;;;;;;;;;
2023/11/17 04:34:11;;;;;;;;;;;;;;;4.49;96.39;99516.38;133457;1305;22444;-72
2023/11/17 04:37:47;;;;;;;;;;;;;;;4.51;96.42;99518.96;133467;1302;23237;-72
2023/11/17 04:40:57;;;;;;;;;;;;;;;4.54;96.51;99524.71;133456;1304;22464;-72
2023/11/17 04:44:03;;;;;;;;;;;;;;;4.55;96.92;99525.09;133457;1305;22484;-72
2023/11/17 04:47:19;;;;;;;;;;;;;;;;;;;;;
2023/11/17 04:50:41;;;;;;;;;;;;;;;;;;;;;
2023/11/17 04:53:48;;;;;;;;;;;;;;;4.60;97.13;99530.39;133449;1304;23315;-72
2023/11/17 04:57:15;;;;;;;;;;;;;;;4.61;97.10;99538.87;133439;1304;23359;-72
2023/11/17 05:00:25;;;;;;;;;;;;;;;4.61;97.08;99544.30;133475;1302;22460;-72
2023/11/17 05:03:37;;;;;;;;;;;;;;;4.60;97.34;99550.37;133466;1304;22485;-72
2023/11/17 05:06:45;;;;;;;;;;;;;;;4.60;97.64;99553.56;133460;1310;22453;-72
2023/11/17 05:09:59;;;;;;;;;;;;;;;;;;;;;
2023/11/17 05:13:14;;;;;;;;;;;;;;;4.57;97.70;99557.45;133456;1302;23133;-72
2023/11/17 05:16:37;;;;;;;;;;;;;;;4.58;98.00;99562.45;133458;1307;22460;-72
2023/11/17 05:20:14;;;;;;;;;;;;;;;;;;;;;
2023/11/17 05:23:26;;;;;;;;;;;;;;;4.58;98.00;99567.87;133436;1306;22571;-72
2023/11/17 05:26:46;;;;;;;;;;;;;;;;;;;;;
2023/11/17 05:30:03;;;;;;;;;;;;;;;;;;;;;
2023/11/17 05:33:04;;;;;;;;;;;;;;;4.60;98.37;99574.79;133473;1304;22460;-73
2023/11/17 05:36:08;;;;;;;;;;;;;;;4.59;98.55;99584.11;133449;1310;22787;-72
2023/11/17 05:39:23;;;;;;;;;;;;;;;4.59;98.48;99581.64;133452;1303;22564;-72
2023/11/17 05:42:32;;;;;;;;;;;;;;;4.60;98.76;99580.90;133467;1310;22475;-72
2023/11/17 05:45:49;;;;;;;;;;;;;;;4.60;98.38;99582.81;133464;1310;22557;-74
2023/11/17 05:49:05;;;;;;;;;;;;;;;4.61;98.56;99588.48;133428;1307;22449;-73
2023/11/17 05:52:16;;;;;;;;;;;;;;;4.63;98.50;99594.10;133451;1307;23269;-74
2023/11/17 05:55:31;;;;;;;;;;;;;;;4.64;98.54;99597.48;133445;1310;22489;-74
2023/11/17 05:58:52;;;;;;;;;;;;;;;;;;;;;
2023/11/17 06:02:19;;;;;;;;;;;;;;;4.64;98.76;99600.67;133460;1310;22469;-73
2023/11/17 06:05:28;;;;;;;;;;;;;;;4.65;98.42;99599.67;133441;1310;22488;-72
2023/11/17 06:09:01;;;;;;;;;;;;;;;4.65;98.60;99601.59;133475;1303;22546;-72
2023/11/17 06:12:09;;;;;;;;;;;;;;;4.65;98.41;99604.59;133468;1310;23780;-73
2023/11/17 06:15:35;;;;;;;;;;;;;;;4.65;98.59;99605.60;133430;1302;23147;-72
2023/11/17 06:18:48;;;;;;;;;;;;;;;4.65;98.81;99610.21;133470;1307;22496;-73
2023/11/17 06:21:54;;;;;;;;;;;;;;;4.63;98.67;99611.58;133474;1305;22443;-72
2023/11/17 06:25:16;;;;;;;;;;;;;;;4.63;98.64;99610.16;133474;1307;23204;-73
2023/11/17 06:28:25;;;;;;;;;;;;;;;4.63;98.57;99614.53;133440;1304;22565;-73
2023/11/17 06:31:38;;;;;;;;;;;;;;;;;;;;;
2023/11/17 06:35:09;;;;;;;;;;;;;;;4.62;98.66;99620.40;133461;1303;23209;-73
2023/11/17 06:38:50;;;;;;;;;;;;;;;;;;;;;
2023/11/17 06:42:04;;;;;;;;;;;;;;;4.62;98.57;99625.73;133467;1310;22479;-73
2023/11/17 06:45:16;;;;;;;;;;;;;;;4.61;98.51;99633.31;133478;1305;22510;-73
2023/11/17 06:48:28;;;;;;;;;;;;;;;4.61;98.73;99636.46;133490;1305;22476;-73
2023/11/17 06:51:32;;;;;;;;;;;;;;;4.61;98.71;99647.67;133485;1310;23204;-72
2023/11/17 06:54:56;;;;;;;;;;;;;;;4.60;98.69;99660.27;133465;1303;23119;-72
2023/11/17 06:58:00;;;;;;;;;;;;;;;4.55;98.42;99671.38;133489;1310;22464;-74
2023/11/17 07:01:09;;;;;;;;;;;;;;;4.49;98.37;99678.73;133465;1298;22464;-72
2023/11/17 07:04:26;;;;;;;;;;;;;;;4.40;98.22;99681.95;133458;1310;23252;-73
2023/11/17 07:07:41;;;;;;;;;;;;;;;4.34;98.07;99686.02;133490;1310;23542;-73
2023/11/17 07:10:59;;;;;;;;;;;;;;;4.29;97.94;99694.71;133476;1303;22541;-73
2023/11/17 07:14:39;;;;;;;;;;;;;;;4.25;98.07;99700.95;133489;1303;22471;-72
2023/11/17 07:17:59;;;;;;;;;;;;;;;;;;;;;
2023/11/17 07:21:03;;;;;;;;;;;;;;;4.19;98.03;99713.66;133453;1310;22465;-72
2023/11/17 07:24:16;;;;;;;;;;;;;;;4.13;97.80;99720.98;133441;1304;23285;-73
2023/11/17 07:27:40;;;;;;;;;;;;;;;4.10;97.75;99725.86;133480;1310;22465;-72
2023/11/17 07:30:49;;;;;;;;;;;;;;;4.07;97.61;99734.81;133382;1305;22614;-72
2023/11/17 07:33:55;;;;;;;;;;;;;;;4.05;97.90;99742.17;133492;1303;22452;-73
2023/11/17 07:37:03;;;;;;;;;;;;;;;3.99;97.60;99753.19;133499;1304;22472;-72
2023/11/17 07:40:09;;;;;;;;;;;;;;;3.88;96.90;99762.55;133491;1302;22487;-72
2023/11/17 07:43:28;;;;;;;;;;;;;;;3.76;96.88;99769.34;133492;1304;22484;-73
2023/11/17 07:46:52;;;;;;;;;;;;;;;3.70;96.96;99773.71;133450;1304;22491;-73
2023/11/17 07:49:54;;;;;;;;;;;;;;;3.66;96.72;99777.05;133495;1304;22488;-72
2023/11/17 07:52:58;;;;;;;;;;;;;;;3.65;96.63;99781.29;133483;1310;22470;-72
2023/11/17 07:56:35;;;;;;;;;;;;;;;3.67;96.44;99782.01;133390;1310;22454;-72
2023/11/17 08:03:23;;;;;;;;;;;;;;;;;;;;;
2023/11/17 08:06:33;;;;;;;;;;;;;;;3.86;95.03;99795.79;133433;1303;22527;-73
2023/11/17 08:09:41;;;;;;;;;;;;;;;4.00;94.90;99803.13;133476;1310;22481;-72
2023/11/17 08:13:30;;;;;;;;;;;;;;;4.09;94.67;99802.41;133436;1303;22475;-72
2023/11/17 08:17:01;;;;;;;;;;;;;;;4.08;93.92;99804.41;133422;1307;22523;-73
2023/11/17 08:19:50;;;;;;;;;;;;;;;4.10;93.79;99811.93;133416;1304;22516;-72
2023/11/17 08:22:54;;;;;;;;;;;;;;;4.15;93.78;99818.30;133503;1304;23215;-72
2023/11/17 08:26:18;;;;;;;;;;;;;;;;;;;;;
2023/11/17 08:29:42;;;;;;;;;;;;;;;4.14;93.29;99822.42;133486;1304;23205;-73
2023/11/17 08:32:47;;;;;;;;;;;;;;;4.08;93.15;99824.42;133484;1304;22504;-72
2023/11/17 08:35:53;;;;;;;;;;;;;;;4.05;93.13;99825.34;133486;1310;22529;-73
2023/11/17 08:38:59;;;;;;;;;;;;;;;4.02;92.82;99834.61;133506;1310;22458;-72
2023/11/17 08:42:16;;;;;;;;;;;;;;;4.01;93.10;99837.18;133498;1303;22483;-72
2023/11/17 08:45:21;;;;;;;;;;;;;;;4.04;93.40;99846.02;133498;1307;23377;-72
2023/11/17 08:48:33;;;;;;;;;;;;;;;;;;;;;
2023/11/17 08:51:58;;;;;;;;;;;;;;;4.06;92.86;99863.39;133503;1310;22496;-73
2023/11/17 08:56:04;;;;;;;;;;;;;;;4.04;92.17;99869.29;133436;1310;22683;-73
2023/11/17 08:58:56;;;;;;;;;;;;;;;3.99;92.17;99871.80;133405;1302;22531;-72
2023/11/17 09:02:05;;;;;;;;;;;;;;;3.96;92.16;99880.18;133511;1302;22539;-73
2023/11/17 09:05:19;;;;;;;;;;;;;;;3.95;92.06;99882.31;133519;1303;22489;-72
2023/11/17 09:08:31;;;;;;;;;;;;;;;3.94;91.43;99884.90;133493;1310;22478;-72
2023/11/17 09:11:51;;;;;;;;;;;;;;;3.87;91.26;99887.77;133501;1310;22540;-73
2023/11/17 09:15:08;;;;;;;;;;;;;;;3.86;91.18;99885.91;133481;1310;22477;-73
2023/11/17 09:18:19;;;;;;;;;;;;;;;3.85;90.82;99896.00;133457;1301;22582;-73
2023/11/17 09:21:25;;;;;;;;;;;;;;;3.81;90.54;99897.86;133508;1310;22464;-74
2023/11/17 09:24:45;;;;;;;;;;;;;;;3.76;90.29;99903.20;133500;1303;22518;-74
2023/11/17 09:28:02;;;;;;;;;;;;;;;3.68;88.92;99904.95;133410;1301;22505;-74
2023/11/17 09:31:24;;;;;;;;;;;;;;;3.54;88.21;99913.07;133421;1303;23307;-73
2023/11/17 09:35:48;;;;;;;;;;;;;;;3.42;87.89;99910.70;133518;1310;22579;-74
2023/11/17 09:39:04;;;;;;;;;;;;;;;3.29;87.97;99913.17;133458;1306;22597;-73
2023/11/17 09:42:18;;;;;;;;;;;;;;;3.16;86.47;99916.03;133466;1302;22556;-73
2023/11/17 09:45:20;;;;;;;;;;;;;;;3.04;87.12;99914.50;133284;1308;22492;-74
2023/11/17 09:48:23;;;;;;;;;;;;;;;2.95;87.43;99918.88;133393;1302;22596;-74
2023/11/17 09:51:28;;;;;;;;;;;;;;;2.86;87.24;99926.25;133462;1305;22481;-74
2023/11/17 09:54:44;;;;;;;;;;;;;;;2.78;87.34;99933.59;133483;1304;23976;-74
2023/11/17 09:58:13;;;;;;;;;;;;;;;;;;;;;
2023/11/17 10:01:21;;;;;;;;;;;;;;;2.63;87.46;99931.22;133408;1303;22505;-73
2023/11/17 10:04:32;;;;;;;;;;;;;;;2.60;87.36;99929.84;133420;1303;22591;-74
2023/11/17 10:07:51;;;;;;;;;;;;;;;2.59;87.07;99929.76;133429;1303;23284;-74
2023/11/17 10:11:58;;;;;;;;;;;;;;;2.65;87.48;99933.17;133403;1300;23245;-74
2023/11/17 10:15:35;;;;;;;;;;;;;;;2.73;87.32;99932.05;133467;1302;22494;-74
2023/11/17 10:18:46;;;;;;;;;;;;;;;2.76;87.42;99928.79;133507;1303;22583;-73
2023/11/17 10:22:24;;;;;;;;;;;;;;;2.81;87.52;99925.61;133494;1310;22477;-74
2023/11/17 10:25:39;;;;;;;;;;;;;;;2.91;87.95;99924.80;133474;1309;22508;-73
2023/11/17 10:28:51;;;;;;;;;;;;;;;3.04;88.01;99918.20;133493;1300;23165;-74
2023/11/17 10:32:39;;;;;;;;;;;;;;;3.14;87.80;99924.77;133447;1301;22510;-74
2023/11/17 10:36:02;;;;;;;;;;;;;;;3.23;88.13;99923.16;133487;1309;22551;-74
2023/11/17 10:43:27;;;;;;;;;;;;;;;;;;;;;
2023/11/17 10:47:02;;;;;;;;;;;;;;;3.14;86.79;99926.27;133478;1303;22553;-73
2023/11/17 10:50:11;;;;;;;;;;;;;;;3.09;87.23;99926.15;133489;1307;22488;-74
2023/11/17 10:57:20;;;;;;;;;;;;;;;3.06;87.08;99928.53;133399;1303;22621;-73
2023/11/17 11:00:43;;;;;;;;;;;;;;;;;;;;;
2023/11/17 11:03:47;;;;;;;;;;;;;;;3.02;87.35;99934.80;133440;1304;22547;-74
2023/11/17 11:11:06;;;;;;;;;;;;;;;;;;;;;
2023/11/17 11:15:14;;;;;;;;;;;;;;;3.08;87.29;99926.42;133402;1309;22517;-73
2023/11/17 11:18:17;;;;;;;;;;;;;;;3.05;87.57;99942.06;133446;1303;22576;-73
2023/11/17 11:22:42;;;;;;;;;;;;;;;3.04;87.85;99943.50;133477;1301;22501;-73
2023/11/17 11:25:52;;;;;;;;;;;;;;;3.03;87.73;99942.71;133460;1303;22512;-73
2023/11/17 11:29:40;;;;;;;;;;;;;;;;;;;;;
2023/11/17 11:33:20;;;;;;;;;;;;;;;3.02;88.25;99933.56;133457;1302;22509;-73
2023/11/17 11:36:53;;;;;;;;;;;;;;;;;;;;;
2023/11/17 11:40:24;;;;;;;;;;;;;;;2.99;88.17;99934.47;133498;1303;22459;-74
2023/11/17 11:44:09;;;;;;;;;;;;;;;;;;;;;
2023/11/17 11:47:36;;;;;;;;;;;;;;;;;;;;;
2023/11/17 11:51:11;;;;;;;;;;;;;;;;;;;;;
2023/11/17 11:54:57;;;;;;;;;;;;;;;;;;;;;
2023/11/17 11:58:22;;;;;;;;;;;;;;;;;;;;;
2023/11/17 12:02:06;;;;;;;;;;;;;;;2.99;87.74;99939.59;133140;1308;22558;-73
2023/11/17 12:05:34;;;;;;;;;;;;;;;;;;;;;
2023/11/17 12:08:55;;;;;;;;;;;;;;;2.96;87.73;99949.03;133138;1312;22504;-73
2023/11/17 12:12:19;;;;;;;;;;;;;;;2.95;87.88;99954.02;133146;1305;23178;-73
2023/11/17 12:15:45;;;;;;;;;;;;;;;2.90;87.91;99954.04;133390;1309;23348;-73
2023/11/17 12:19:02;;;;;;;;;;;;;;;;;;;;;
2023/11/17 12:23:03;;;;;;;;;;;;;;;2.88;88.24;99963.63;133485;1304;22523;-73
2023/11/17 12:26:19;;;;;;;;;;;;;;;;;;;;;
2023/11/17 12:29:43;;;;;;;;;;;;;;;;;;;;;
2023/11/17 12:32:58;;;;;;;;;;;;;;;2.90;88.52;99971.32;133383;1303;22522;-73
2023/11/17 12:36:29;;;;;;;;;;;;;;;2.93;88.58;99979.71;133409;1302;22489;-73
2023/11/17 12:40:08;;;;;;;;;;;;;;;2.96;88.77;99976.34;133395;1304;22540;-73
2023/11/17 12:43:35;;;;;;;;;;;;;;;2.98;88.86;99972.51;133499;1303;23477;-73
2023/11/17 12:46:55;;;;;;;;;;;;;;;3.00;88.66;99972.14;133516;1307;23131;-73
2023/11/17 12:50:41;;;;;;;;;;;;;;;;;;;;;
2023/11/17 12:53:57;;;;;;;;;;;;;;;;;;;;;
2023/11/17 12:57:41;;;;;;;;;;;;;;;;;;;;;
2023/11/17 13:00:54;;;;;;;;;;;;;;;3.11;88.58;99978.27;133508;1301;23306;-73
2023/11/17 13:04:30;;;;;;;;;;;;;;;;;;;;;
2023/11/17 13:08:29;;;;;;;;;;;;;;;3.10;88.29;99984.60;133468;1310;24700;-73
2023/11/17 13:11:48;;;;;;;;;;;;;;;3.13;88.50;99989.95;133460;1302;23268;-73
2023/11/17 13:15:30;;;;;;;;;;;;;;;;;;;;;
2023/11/17 13:18:51;;;;;;;;;;;;;;;3.12;87.93;99996.91;133516;1307;23286;-73
2023/11/17 13:22:22;;;;;;;;;;;;;;;3.08;87.94;100002.10;133500;1310;22604;-73
2023/11/17 13:26:10;;;;;;;;;;;;;;;3.08;88.07;100004.02;133523;1307;22494;-73
2023/11/17 13:29:18;;;;;;;;;;;;;;;3.09;87.98;100005.64;133489;1310;23736;-73
2023/11/17 13:32:32;;;;;;;;;;;;;;;3.08;87.78;100008.88;133458;1305;22520;-73
2023/11/17 13:36:15;;;;;;;;;;;;;;;3.09;87.88;100003.95;133505;1304;22573;-73
2023/11/17 13:39:24;;;;;;;;;;;;;;;3.10;87.69;100005.45;133527;1310;22477;-73
2023/11/17 13:42:49;;;;;;;;;;;;;;;3.11;87.63;100010.09;133550;1310;23293;-73
2023/11/17 13:46:50;;;;;;;;;;;;;;;3.12;87.73;100014.19;133442;1310;22489;-73
2023/11/17 13:50:17;;;;;;;;;;;;;;;3.15;87.87;100010.64;133514;1302;22650;-73
2023/11/17 13:54:02;;;;;;;;;;;;;;;3.17;87.79;100019.90;133524;1303;23376;-73
2023/11/17 13:57:20;;;;;;;;;;;;;;;3.18;87.84;100020.91;133524;1302;23164;-73
2023/11/17 14:00:44;;;;;;;;;;;;;;;3.16;87.72;100028.23;133450;1303;23106;-73
2023/11/17 14:04:03;;;;;;;;;;;;;;;3.13;88.07;100032.06;133471;1301;22465;-72
2023/11/17 14:07:08;;;;;;;;;;;;;;;3.12;87.95;100033.06;133545;1291;22461;-73
2023/11/17 14:10:11;;;;;;;;;;;;;;;3.13;88.10;100037.36;133528;1308;23592;-72
2023/11/17 14:13:48;;;;;;;;;;;;;;;3.13;88.31;100040.84;133466;1303;22544;-72
2023/11/17 14:17:00;;;;;;;;;;;;;;;3.12;88.36;100044.73;133521;1304;22651;-72
2023/11/17 14:20:29;;;;;;;;;;;;;;;3.13;88.50;100045.04;133539;1292;22540;-72
2023/11/17 14:23:38;;;;;;;;;;;;;;;3.12;88.65;100049.42;133521;1303;22610;-72
2023/11/17 14:26:48;;;;;;;;;;;;;;;;;;;;;
2023/11/17 14:30:18;;;;;;;;;;;;;;;3.17;88.58;100052.30;133534;1303;23243;-72
2023/11/17 14:33:14;;;;;;;;;;;;;;;3.15;88.63;100056.26;133547;1303;22560;-72
2023/11/17 14:36:20;;;;;;;;;;;;;;;3.15;88.79;100057.64;133551;1308;22463;-72
2023/11/17 14:39:37;;;;;;;;;;;;;;;3.13;89.00;100064.80;133522;1310;23502;-72
2023/11/17 14:42:41;;;;;;;;;;;;;;;3.10;89.04;100076.76;133414;1305;22482;-72
2023/11/17 14:45:50;;;;;;;;;;;;;;;3.07;89.34;100082.95;133480;1304;22446;-73
2023/11/17 14:48:56;;;;;;;;;;;;;;;3.03;89.60;100087.81;133535;1303;22473;-72
2023/11/17 14:51:59;;;;;;;;;;;;;;;3.00;89.46;100088.50;133536;1303;22482;-72
2023/11/17 14:55:22;;;;;;;;;;;;;;;2.98;89.79;100094.80;133518;1301;22487;-72
2023/11/17 14:58:23;;;;;;;;;;;;;;;2.95;89.76;100096.09;133542;1302;22485;-72
2023/11/17 15:01:55;;;;;;;;;;;;;;;2.93;90.02;100096.74;133523;1302;22577;-72
2023/11/17 15:05:19;;;;;;;;;;;;;;;2.92;90.22;100091.20;133465;1303;22489;-72
2023/11/17 15:08:26;;;;;;;;;;;;;;;2.91;90.20;100091.31;133520;1301;22477;-72
2023/11/17 15:11:27;;;;;;;;;;;;;;;2.92;90.45;100093.89;133526;1303;22500;-70
2023/11/17 15:14:40;;;;;;;;;;;;;;;2.94;90.43;100096.89;133560;1301;22472;-72
2023/11/17 15:17:43;;;;;;;;;;;;;;;2.95;90.34;100096.98;133518;1307;22477;-71
2023/11/17 15:21:08;;;;;;;;;;;;;;;2.98;90.43;100099.70;133550;1303;22513;-72
2023/11/17 15:24:19;;;;;;;;;;;;;;;;;;;;;
2023/11/17 15:28:28;;;;;;;;;;;;;;;3.00;90.16;100098.39;133525;1303;22511;-72
2023/11/17 15:31:30;;;;;;;;;;;;;;;3.02;90.38;100104.66;133427;1304;22515;-71
2023/11/17 15:34:56;;;;;;;;;;;;;;;;;;;;;
2023/11/17 15:38:25;;;;;;;;;;;;;;;3.05;90.03;100115.11;133529;1308;22457;-71
2023/11/17 15:41:54;;;;;;;;;;;;;;;3.05;89.97;100119.25;133443;1304;22517;-72
2023/11/17 15:46:17;;;;;;;;;;;;;;;3.05;89.83;100125.21;133508;1301;22547;-72
2023/11/17 15:49:21;;;;;;;;;;;;;;;;;;;;;
2023/11/17 15:52:37;;;;;;;;;;;;;;;3.07;89.83;100135.00;133433;1304;22677;-72
2023/11/17 15:56:54;;;;;;;;;;;;;;;3.09;90.10;100138.13;133393;1304;23092;-72
2023/11/17 15:59:51;;;;;;;;;;;;;;;3.12;90.09;100143.71;133414;1305;22515;-72
2023/11/17 16:03:47;;;;;;;;;;;;;;;;;;;;;
2023/11/17 16:11:33;;;;;;;;;;;;;;;3.20;90.40;100153.74;133414;1304;23313;-72
2023/11/17 16:14:31;;;;;;;;;;;;;;;3.21;90.31;100157.20;133372;1308;22511;-72
2023/11/17 16:17:38;;;;;;;;;;;;;;;3.17;90.65;100157.68;133460;1308;22528;-72
2023/11/17 16:21:12;;;;;;;;;;;;;;;;;;;;;
2023/11/17 16:24:20;;;;;;;;;;;;;;;3.01;91.37;100169.92;133471;1302;22590;-72
2023/11/17 16:27:24;;;;;;;;;;;;;;;2.93;91.40;100174.02;133466;1306;22482;-73
2023/11/17 16:30:40;;;;;;;;;;;;;;;;;;;;;
2023/11/17 16:34:30;;;;;;;;;;;;;;;;;;;;;
2023/11/17 16:38:04;;;;;;;;;;;;;;;2.83;92.09;100184.17;133478;1302;22516;-72
2023/11/17 16:41:33;;;;;;;;;;;;;;;2.84;92.12;100187.58;133473;1304;23371;-72
2023/11/17 16:45:01;;;;;;;;;;;;;;;2.88;92.31;100188.33;133393;1303;22572;-74
2023/11/17 16:48:16;;;;;;;;;;;;;;;;;;;;;
2023/11/17 16:51:25;;;;;;;;;;;;;;;2.91;92.39;100193.38;133416;1302;22637;-72
2023/11/17 16:54:31;;;;;;;;;;;;;;;2.93;92.75;100190.27;133419;1303;22439;-72
2023/11/17 16:57:35;;;;;;;;;;;;;;;2.96;92.74;100191.98;133434;1302;23276;-72
2023/11/17 17:00:55;;;;;;;;;;;;;;;2.96;92.55;100192.83;133198;1304;22506;-72
2023/11/17 17:04:27;;;;;;;;;;;;;;;2.98;92.78;100197.54;133468;1302;22544;-72
2023/11/17 17:07:41;;;;;;;;;;;;;;;;;;;;;
2023/11/17 17:10:51;;;;;;;;;;;;;;;2.98;92.63;100195.42;133553;1302;22475;-71
2023/11/17 17:14:32;;;;;;;;;;;;;;;;;;;;;
2023/11/17 17:17:30;;;;;;;;;;;;;;;2.96;92.86;100199.15;133523;1302;23335;-71
2023/11/17 17:20:31;;;;;;;;;;;;;;;2.95;92.96;100199.15;133502;1303;22490;-71
2023/11/17 17:23:37;;;;;;;;;;;;;;;2.96;92.98;100203.67;133542;1303;22611;-72
2023/11/17 17:26:48;;;;;;;;;;;;;;;2.95;92.91;100199.52;133489;1303;22479;-72
2023/11/17 17:30:05;;;;;;;;;;;;;;;;;;;;;
2023/11/17 17:33:09;;;;;;;;;;;;;;;2.96;93.00;100208.94;133505;1303;22467;-72
2023/11/17 17:36:13;;;;;;;;;;;;;;;2.97;93.20;100208.34;133501;1301;22480;-73
2023/11/17 17:39:19;;;;;;;;;;;;;;;2.97;93.15;100211.45;133572;1303;22448;-73
2023/11/17 17:42:24;;;;;;;;;;;;;;;2.97;93.43;100209.18;133512;1301;23101;-71
2023/11/17 17:45:30;;;;;;;;;;;;;;;2.95;93.53;100203.21;133553;1304;22475;-71
2023/11/17 17:48:34;;;;;;;;;;;;;;;2.94;93.87;100203.81;133551;1302;22472;-72
2023/11/17 17:51:38;;;;;;;;;;;;;;;2.93;93.52;100206.69;133382;1302;22516;-72
2023/11/17 17:54:47;;;;;;;;;;;;;;;2.91;93.55;100208.88;133453;1303;23253;-72
2023/11/17 17:57:55;;;;;;;;;;;;;;;2.93;93.74;100206.34;133461;1303;22493;-72
2023/11/17 18:01:16;;;;;;;;;;;;;;;2.95;93.62;100208.45;133516;1301;22484;-73
2023/11/17 18:04:23;;;;;;;;;;;;;;;2.95;93.80;100212.35;133431;1301;22511;-74
2023/11/17 18:07:51;;;;;;;;;;;;;;;2.94;93.86;100211.85;133544;1303;22522;-72
2023/11/17 18:11:07;;;;;;;;;;;;;;;2.94;93.92;100213.58;133502;1303;22477;-73
2023/11/17 18:14:14;;;;;;;;;;;;;;;2.94;93.92;100213.58;133513;1297;22474;-72
2023/11/17 18:17:27;;;;;;;;;;;;;;;2.95;94.06;100214.94;133489;1302;22489;-72
2023/11/17 18:20:42;;;;;;;;;;;;;;;2.94;94.18;100214.33;133394;1302;22480;-71
2023/11/17 18:23:52;;;;;;;;;;;;;;;2.92;94.14;100213.92;133604;1303;22958;-72
2023/11/17 18:27:17;;;;;;;;;;;;;;;2.91;94.35;100217.65;133478;1302;22544;-72
2023/11/17 18:30:28;;;;;;;;;;;;;;;2.91;94.24;100222.70;133493;1302;22475;-74
2023/11/17 18:33:34;;;;;;;;;;;;;;;2.91;94.32;100225.48;133526;1301;22531;-73
2023/11/17 18:36:54;;;;;;;;;;;;;;;;;;;;;
2023/11/17 18:40:03;;;;;;;;;;;;;;;2.91;94.21;100226.56;133548;1301;22451;-72
2023/11/17 18:43:12;;;;;;;;;;;;;;;2.90;94.47;100230.65;133442;1308;22484;-74
2023/11/17 18:46:18;;;;;;;;;;;;;;;2.90;94.26;100230.27;133517;1301;23331;-71
2023/11/17 18:49:44;;;;;;;;;;;;;;;2.89;94.59;100229.48;133544;1302;22458;-72
2023/11/17 18:52:47;;;;;;;;;;;;;;;2.88;94.30;100232.74;133529;1302;22511;-74
2023/11/17 18:55:56;;;;;;;;;;;;;;;2.85;94.47;100233.48;133430;1303;23403;-72
2023/11/17 18:59:17;;;;;;;;;;;;;;;2.83;94.60;100235.50;133463;1304;22475;-72
2023/11/17 19:02:33;;;;;;;;;;;;;;;2.82;94.73;100232.80;133500;1304;23575;-72
2023/11/17 19:05:57;;;;;;;;;;;;;;;2.80;94.80;100237.02;133457;1308;22518;-74
2023/11/17 19:09:38;;;;;;;;;;;;;;;2.80;95.00;100235.30;133526;1301;22493;-72
2023/11/17 19:12:53;;;;;;;;;;;;;;;2.79;95.03;100240.91;133579;1304;22556;-73
2023/11/17 19:16:06;;;;;;;;;;;;;;;2.81;95.22;100242.56;133520;1301;23301;-72